sensor_id;sensor_type;location;lat;lon;timestamp;pressure;altitude;pressure_sealevel;temperature;humidity
38900;BME280;24660;43.238;26.576;2023-02-11T00:01:38;101298.25;;;-9.25;100.00
38900;BME280;24660;43.238;26.576;2023-02-11T00:04:04;101298.13;;;-9.00;100.00
38900;BME280;24660;43.238;26.576;2023-02-11T00:06:30;101301.16;;;-9.14;100.00
38900;BME280;24660;43.238;26.576;2023-02-11T00:08:56;101293.91;;;-9.56;100.00
38900;BME280;24660;43.238;26.576;2023-02-11T00:11:22;101303.09;;;-9.66;100.00
38900;BME280;24660;43.238;26.576;2023-02-11T00:13:49;101283.19;;;-9.38;100.00
38900;BME280;24660;43.238;26.576;2023-02-11T00:16:16;101298.00;;;-9.63;100.00
38900;BME280;24660;43.238;26.576;2023-02-11T00:18:41;101289.84;;;-9.46;100.00
38900;BME280;24660;43.238;26.576;2023-02-11T00:21:08;101284.41;;;-9.55;100.00
38900;BME280;24660;43.238;26.576;2023-02-11T00:23:34;101286.19;;;-9.83;100.00
38900;BME280;24660;43.238;26.576;2023-02-11T00:25:59;101289.72;;;-9.51;100.00
38900;BME280;24660;43.238;26.576;2023-02-11T00:28:24;101285.94;;;-9.02;100.00
38900;BME280;24660;43.238;26.576;2023-02-11T00:30:57;101286.19;;;-9.24;100.00
38900;BME280;24660;43.238;26.576;2023-02-11T00:33:22;101287.66;;;-9.03;100.00
38900;BME280;24660;43.238;26.576;2023-02-11T00:35:48;101283.75;;;-9.48;100.00
38900;BME280;24660;43.238;26.576;2023-02-11T00:38:13;101288.22;;;-9.71;100.00
38900;BME280;24660;43.238;26.576;2023-02-11T00:40:39;101282.78;;;-9.80;100.00
38900;BME280;24660;43.238;26.576;2023-02-11T00:43:04;101277.94;;;-9.98;100.00
38900;BME280;24660;43.238;26.576;2023-02-11T00:45:29;101285.66;;;-9.71;100.00
38900;BME280;24660;43.238;26.576;2023-02-11T00:47:55;101272.78;;;-9.10;100.00
38900;BME280;24660;43.238;26.576;2023-02-11T00:50:20;101258.66;;;-9.51;100.00
38900;BME280;24660;43.238;26.576;2023-02-11T00:52:45;101265.56;;;-9.51;100.00
38900;BME280;24660;43.238;26.576;2023-02-11T00:55:11;101273.31;;;-9.80;100.00
38900;BME280;24660;43.238;26.576;2023-02-11T00:57:36;101271.06;;;-9.41;100.00
38900;BME280;24660;43.238;26.576;2023-02-11T01:00:02;101257.03;;;-9.47;100.00
38900;BME280;24660;43.238;26.576;2023-02-11T01:02:28;101262.47;;;-9.38;100.00
38900;BME280;24660;43.238;26.576;2023-02-11T01:04:53;101267.47;;;-9.44;100.00
38900;BME280;24660;43.238;26.576;2023-02-11T01:07:18;101263.88;;;-9.49;100.00
38900;BME280;24660;43.238;26.576;2023-02-11T01:09:44;101269.06;;;-9.49;100.00
38900;BME280;24660;43.238;26.576;2023-02-11T01:12:09;101259.63;;;-9.76;100.00
38900;BME280;24660;43.238;26.576;2023-02-11T01:14:34;101262.19;;;-9.77;100.00
38900;BME280;24660;43.238;26.576;2023-02-11T01:17:00;101264.94;;;-10.00;100.00
38900;BME280;24660;43.238;26.576;2023-02-11T01:19:25;101268.91;;;-10.11;100.00
38900;BME280;24660;43.238;26.576;2023-02-11T01:21:50;101268.78;;;-9.59;100.00
38900;BME280;24660;43.238;26.576;2023-02-11T01:24:16;101253.97;;;-9.93;100.00
38900;BME280;24660;43.238;26.576;2023-02-11T01:26:42;101257.09;;;-9.74;100.00
38900;BME280;24660;43.238;26.576;2023-02-11T01:29:07;101256.31;;;-9.72;100.00
38900;BME280;24660;43.238;26.576;2023-02-11T01:31:33;101249.50;;;-9.70;100.00
38900;BME280;24660;43.238;26.576;2023-02-11T01:33:58;101243.66;;;-9.91;100.00
38900;BME280;24660;43.238;26.576;2023-02-11T01:36:24;101248.25;;;-9.82;100.00
38900;BME280;24660;43.238;26.576;2023-02-11T01:38:50;101256.13;;;-9.49;100.00
38900;BME280;24660;43.238;26.576;2023-02-11T01:41:15;101251.91;;;-9.74;100.00
38900;BME280;24660;43.238;26.576;2023-02-11T01:43:44;101243.06;;;-9.54;100.00
38900;BME280;24660;43.238;26.576;2023-02-11T01:46:16;101248.25;;;-9.52;100.00
38900;BME280;24660;43.238;26.576;2023-02-11T01:48:44;101247.50;;;-9.78;100.00
38900;BME280;24660;43.238;26.576;2023-02-11T01:51:12;101250.91;;;-9.51;100.00
38900;BME280;24660;43.238;26.576;2023-02-11T01:53:39;101247.19;;;-9.59;100.00
38900;BME280;24660;43.238;26.576;2023-02-11T01:56:20;101248.34;;;-9.79;100.00
38900;BME280;24660;43.238;26.576;2023-02-11T01:59:04;101250.38;;;-9.98;100.00
38900;BME280;24660;43.238;26.576;2023-02-11T02:01:30;101245.28;;;-9.36;100.00
38900;BME280;24660;43.238;26.576;2023-02-11T02:03:58;101240.94;;;-9.37;100.00
38900;BME280;24660;43.238;26.576;2023-02-11T02:06:26;101241.41;;;-9.50;100.00
38900;BME280;24660;43.238;26.576;2023-02-11T02:08:58;101242.03;;;-9.59;100.00
38900;BME280;24660;43.238;26.576;2023-02-11T02:11:26;101247.44;;;-9.51;100.00
38900;BME280;24660;43.238;26.576;2023-02-11T02:13:51;101246.84;;;-9.71;100.00
38900;BME280;24660;43.238;26.576;2023-02-11T02:16:17;101243.56;;;-9.36;100.00
38900;BME280;24660;43.238;26.576;2023-02-11T02:18:52;101251.22;;;-9.40;100.00
38900;BME280;24660;43.238;26.576;2023-02-11T02:34:48;101244.25;;;-9.43;100.00
38900;BME280;24660;43.238;26.576;2023-02-11T02:37:17;101257.69;;;-9.24;100.00
38900;BME280;24660;43.238;26.576;2023-02-11T02:39:43;101262.47;;;-9.08;100.00
38900;BME280;24660;43.238;26.576;2023-02-11T02:42:09;101262.19;;;-9.17;100.00
38900;BME280;24660;43.238;26.576;2023-02-11T02:44:35;101262.97;;;-8.57;100.00
38900;BME280;24660;43.238;26.576;2023-02-11T02:47:01;101258.28;;;-9.03;100.00
38900;BME280;24660;43.238;26.576;2023-02-11T02:49:26;101277.44;;;-8.98;100.00
38900;BME280;24660;43.238;26.576;2023-02-11T02:52:34;101266.19;;;-8.65;100.00
38900;BME280;24660;43.238;26.576;2023-02-11T02:57:31;101251.56;;;-8.63;100.00
38900;BME280;24660;43.238;26.576;2023-02-11T03:02:30;101260.06;;;-8.69;100.00
38900;BME280;24660;43.238;26.576;2023-02-11T03:10:20;101260.41;;;-8.88;100.00
38900;BME280;24660;43.238;26.576;2023-02-11T03:12:47;101255.66;;;-9.05;100.00
38900;BME280;24660;43.238;26.576;2023-02-11T03:15:14;101257.16;;;-8.81;100.00
38900;BME280;24660;43.238;26.576;2023-02-11T03:17:41;101256.09;;;-8.88;100.00
38900;BME280;24660;43.238;26.576;2023-02-11T03:20:10;101258.50;;;-9.27;100.00
38900;BME280;24660;43.238;26.576;2023-02-11T03:22:41;101264.22;;;-9.07;100.00
38900;BME280;24660;43.238;26.576;2023-02-11T03:25:10;101262.53;;;-9.05;100.00
38900;BME280;24660;43.238;26.576;2023-02-11T03:27:38;101262.69;;;-9.01;100.00
38900;BME280;24660;43.238;26.576;2023-02-11T03:32:35;101256.97;;;-8.87;100.00
38900;BME280;24660;43.238;26.576;2023-02-11T03:35:03;101260.75;;;-9.08;100.00
38900;BME280;24660;43.238;26.576;2023-02-11T03:37:32;101264.91;;;-8.81;100.00
38900;BME280;24660;43.238;26.576;2023-02-11T03:40:03;101255.69;;;-8.72;100.00
38900;BME280;24660;43.238;26.576;2023-02-11T03:42:31;101249.66;;;-9.02;100.00
38900;BME280;24660;43.238;26.576;2023-02-11T03:45:02;101249.81;;;-8.98;100.00
38900;BME280;24660;43.238;26.576;2023-02-11T03:47:29;101248.06;;;-8.65;100.00
38900;BME280;24660;43.238;26.576;2023-02-11T03:49:56;101240.16;;;-8.70;100.00
38900;BME280;24660;43.238;26.576;2023-02-11T03:52:22;101246.06;;;-8.76;100.00
38900;BME280;24660;43.238;26.576;2023-02-11T03:54:50;101246.84;;;-9.11;100.00
38900;BME280;24660;43.238;26.576;2023-02-11T03:57:17;101243.28;;;-9.15;100.00
38900;BME280;24660;43.238;26.576;2023-02-11T03:59:52;101243.91;;;-8.92;100.00
38900;BME280;24660;43.238;26.576;2023-02-11T04:02:18;101240.91;;;-9.39;100.00
38900;BME280;24660;43.238;26.576;2023-02-11T04:04:43;101237.63;;;-9.32;100.00
38900;BME280;24660;43.238;26.576;2023-02-11T04:07:10;101244.91;;;-9.18;100.00
38900;BME280;24660;43.238;26.576;2023-02-11T04:09:35;101233.16;;;-9.37;100.00
38900;BME280;24660;43.238;26.576;2023-02-11T04:12:01;101237.88;;;-9.54;100.00
38900;BME280;24660;43.238;26.576;2023-02-11T04:14:26;101233.25;;;-9.03;100.00
38900;BME280;24660;43.238;26.576;2023-02-11T04:16:51;101229.97;;;-9.29;100.00
38900;BME280;24660;43.238;26.576;2023-02-11T04:19:17;101234.66;;;-8.82;100.00
38900;BME280;24660;43.238;26.576;2023-02-11T04:21:42;101229.56;;;-8.79;100.00
38900;BME280;24660;43.238;26.576;2023-02-11T04:24:07;101228.59;;;-8.83;100.00
38900;BME280;24660;43.238;26.576;2023-02-11T04:26:32;101232.38;;;-8.70;100.00
38900;BME280;24660;43.238;26.576;2023-02-11T04:28:58;101221.63;;;-9.17;100.00
38900;BME280;24660;43.238;26.576;2023-02-11T04:31:23;101217.66;;;-9.67;100.00
38900;BME280;24660;43.238;26.576;2023-02-11T04:33:48;101215.13;;;-9.64;100.00
38900;BME280;24660;43.238;26.576;2023-02-11T04:36:13;101216.19;;;-9.58;100.00
38900;BME280;24660;43.238;26.576;2023-02-11T04:38:39;101222.13;;;-9.30;100.00
38900;BME280;24660;43.238;26.576;2023-02-11T04:41:04;101215.13;;;-9.03;100.00
38900;BME280;24660;43.238;26.576;2023-02-11T04:43:29;101207.78;;;-9.19;100.00
38900;BME280;24660;43.238;26.576;2023-02-11T04:45:55;101203.56;;;-8.82;100.00
38900;BME280;24660;43.238;26.576;2023-02-11T04:48:21;101198.22;;;-8.88;100.00
38900;BME280;24660;43.238;26.576;2023-02-11T04:50:46;101208.63;;;-8.52;100.00
38900;BME280;24660;43.238;26.576;2023-02-11T04:53:11;101209.88;;;-8.36;100.00
38900;BME280;24660;43.238;26.576;2023-02-11T04:55:36;101206.59;;;-8.28;100.00
38900;BME280;24660;43.238;26.576;2023-02-11T04:58:02;101209.94;;;-8.32;100.00
38900;BME280;24660;43.238;26.576;2023-02-11T05:00:27;101214.19;;;-8.37;100.00
38900;BME280;24660;43.238;26.576;2023-02-11T05:02:52;101207.50;;;-8.26;100.00
38900;BME280;24660;43.238;26.576;2023-02-11T05:05:18;101205.00;;;-7.84;100.00
38900;BME280;24660;43.238;26.576;2023-02-11T05:07:43;101191.53;;;-8.05;100.00
38900;BME280;24660;43.238;26.576;2023-02-11T05:10:08;101200.38;;;-7.97;100.00
38900;BME280;24660;43.238;26.576;2023-02-11T05:12:34;101196.94;;;-7.96;100.00
38900;BME280;24660;43.238;26.576;2023-02-11T05:14:59;101187.75;;;-7.80;100.00
38900;BME280;24660;43.238;26.576;2023-02-11T05:17:24;101195.63;;;-7.75;100.00
38900;BME280;24660;43.238;26.576;2023-02-11T05:19:49;101197.59;;;-7.65;100.00
38900;BME280;24660;43.238;26.576;2023-02-11T05:22:15;101185.41;;;-7.69;100.00
38900;BME280;24660;43.238;26.576;2023-02-11T05:24:40;101192.63;;;-7.95;100.00
38900;BME280;24660;43.238;26.576;2023-02-11T05:27:06;101190.06;;;-7.94;100.00
38900;BME280;24660;43.238;26.576;2023-02-11T05:29:31;101193.28;;;-8.04;100.00
38900;BME280;24660;43.238;26.576;2023-02-11T05:31:57;101192.34;;;-7.68;100.00
38900;BME280;24660;43.238;26.576;2023-02-11T05:34:23;101189.31;;;-7.88;100.00
38900;BME280;24660;43.238;26.576;2023-02-11T05:36:48;101196.47;;;-7.78;100.00
38900;BME280;24660;43.238;26.576;2023-02-11T05:39:14;101198.00;;;-7.88;100.00
38900;BME280;24660;43.238;26.576;2023-02-11T05:41:39;101196.38;;;-7.83;100.00
38900;BME280;24660;43.238;26.576;2023-02-11T05:44:04;101194.28;;;-7.60;100.00
38900;BME280;24660;43.238;26.576;2023-02-11T05:46:29;101193.91;;;-7.75;100.00
38900;BME280;24660;43.238;26.576;2023-02-11T05:48:55;101203.81;;;-7.59;100.00
38900;BME280;24660;43.238;26.576;2023-02-11T05:51:21;101199.88;;;-7.81;100.00
38900;BME280;24660;43.238;26.576;2023-02-11T05:53:46;101200.16;;;-8.06;100.00
38900;BME280;24660;43.238;26.576;2023-02-11T05:56:11;101203.00;;;-7.95;100.00
38900;BME280;24660;43.238;26.576;2023-02-11T05:58:38;101195.03;;;-8.03;100.00
38900;BME280;24660;43.238;26.576;2023-02-11T06:01:03;101204.13;;;-7.43;100.00
38900;BME280;24660;43.238;26.576;2023-02-11T06:03:29;101205.66;;;-7.52;100.00
38900;BME280;24660;43.238;26.576;2023-02-11T06:05:54;101201.25;;;-7.56;100.00
38900;BME280;24660;43.238;26.576;2023-02-11T06:08:19;101205.53;;;-7.59;100.00
38900;BME280;24660;43.238;26.576;2023-02-11T06:10:45;101216.28;;;-7.82;100.00
38900;BME280;24660;43.238;26.576;2023-02-11T06:13:10;101208.13;;;-7.59;100.00
38900;BME280;24660;43.238;26.576;2023-02-11T06:15:36;101209.22;;;-7.47;100.00
38900;BME280;24660;43.238;26.576;2023-02-11T06:18:01;101218.06;;;-6.92;100.00
38900;BME280;24660;43.238;26.576;2023-02-11T06:20:26;101212.34;;;-6.74;100.00
38900;BME280;24660;43.238;26.576;2023-02-11T06:22:52;101209.09;;;-6.06;100.00
38900;BME280;24660;43.238;26.576;2023-02-11T06:25:17;101212.75;;;-6.49;100.00
38900;BME280;24660;43.238;26.576;2023-02-11T06:27:42;101206.22;;;-6.23;100.00
38900;BME280;24660;43.238;26.576;2023-02-11T06:30:08;101210.78;;;-6.10;100.00
38900;BME280;24660;43.238;26.576;2023-02-11T06:32:33;101209.53;;;-5.74;100.00
38900;BME280;24660;43.238;26.576;2023-02-11T06:34:59;101224.09;;;-5.20;100.00
38900;BME280;24660;43.238;26.576;2023-02-11T06:37:24;101224.06;;;-5.22;100.00
38900;BME280;24660;43.238;26.576;2023-02-11T06:39:49;101223.31;;;-5.10;100.00
38900;BME280;24660;43.238;26.576;2023-02-11T06:42:15;101229.50;;;-5.03;100.00
38900;BME280;24660;43.238;26.576;2023-02-11T06:44:40;101227.88;;;-4.92;100.00
38900;BME280;24660;43.238;26.576;2023-02-11T06:47:05;101226.31;;;-4.76;100.00
38900;BME280;24660;43.238;26.576;2023-02-11T06:49:31;101232.44;;;-4.70;100.00
38900;BME280;24660;43.238;26.576;2023-02-11T06:51:56;101235.22;;;-4.52;100.00
38900;BME280;24660;43.238;26.576;2023-02-11T06:54:22;101232.94;;;-4.12;100.00
38900;BME280;24660;43.238;26.576;2023-02-11T06:56:47;101238.38;;;-3.83;100.00
38900;BME280;24660;43.238;26.576;2023-02-11T06:59:16;101227.81;;;-3.98;100.00
38900;BME280;24660;43.238;26.576;2023-02-11T07:01:42;101225.38;;;-3.68;100.00
38900;BME280;24660;43.238;26.576;2023-02-11T07:04:07;101230.00;;;-3.10;100.00
38900;BME280;24660;43.238;26.576;2023-02-11T07:06:32;101229.94;;;-3.24;100.00
38900;BME280;24660;43.238;26.576;2023-02-11T07:08:58;101215.94;;;-3.40;100.00
38900;BME280;24660;43.238;26.576;2023-02-11T07:11:24;101216.91;;;-3.19;100.00
38900;BME280;24660;43.238;26.576;2023-02-11T07:13:50;101218.72;;;-2.83;100.00
38900;BME280;24660;43.238;26.576;2023-02-11T07:16:16;101222.25;;;-2.72;100.00
38900;BME280;24660;43.238;26.576;2023-02-11T07:18:43;101230.09;;;-2.80;100.00
38900;BME280;24660;43.238;26.576;2023-02-11T07:21:10;101223.06;;;-3.08;100.00
38900;BME280;24660;43.238;26.576;2023-02-11T07:23:35;101221.28;;;-3.20;100.00
38900;BME280;24660;43.238;26.576;2023-02-11T07:26:02;101224.88;;;-2.72;100.00
38900;BME280;24660;43.238;26.576;2023-02-11T07:28:27;101221.41;;;-2.62;100.00
38900;BME280;24660;43.238;26.576;2023-02-11T07:30:52;101217.03;;;-2.00;100.00
38900;BME280;24660;43.238;26.576;2023-02-11T07:33:18;101211.72;;;-1.65;100.00
38900;BME280;24660;43.238;26.576;2023-02-11T07:35:43;101206.50;;;-1.77;100.00
38900;BME280;24660;43.238;26.576;2023-02-11T07:38:08;101209.06;;;-1.53;100.00
38900;BME280;24660;43.238;26.576;2023-02-11T07:40:34;101206.34;;;-1.30;100.00
38900;BME280;24660;43.238;26.576;2023-02-11T07:42:59;101217.44;;;-0.76;100.00
38900;BME280;24660;43.238;26.576;2023-02-11T07:45:25;101212.81;;;-0.39;100.00
38900;BME280;24660;43.238;26.576;2023-02-11T07:47:50;101211.63;;;-0.05;100.00
38900;BME280;24660;43.238;26.576;2023-02-11T07:50:16;101205.00;;;0.42;100.00
38900;BME280;24660;43.238;26.576;2023-02-11T07:52:41;101202.47;;;1.05;100.00
38900;BME280;24660;43.238;26.576;2023-02-11T07:55:06;101199.25;;;0.82;100.00
38900;BME280;24660;43.238;26.576;2023-02-11T07:57:33;101193.28;;;0.69;100.00
38900;BME280;24660;43.238;26.576;2023-02-11T07:59:58;101186.19;;;0.76;100.00
38900;BME280;24660;43.238;26.576;2023-02-11T08:02:23;101189.59;;;0.82;100.00
38900;BME280;24660;43.238;26.576;2023-02-11T08:04:49;101194.16;;;1.33;100.00
38900;BME280;24660;43.238;26.576;2023-02-11T08:07:15;101182.00;;;-0.23;100.00
38900;BME280;24660;43.238;26.576;2023-02-11T08:09:41;101192.19;;;0.87;100.00
38900;BME280;24660;43.238;26.576;2023-02-11T08:12:06;101188.44;;;1.03;100.00
38900;BME280;24660;43.238;26.576;2023-02-11T08:14:31;101191.06;;;1.05;100.00
38900;BME280;24660;43.238;26.576;2023-02-11T08:16:57;101188.53;;;1.54;100.00
38900;BME280;24660;43.238;26.576;2023-02-11T08:19:22;101176.88;;;1.70;100.00
38900;BME280;24660;43.238;26.576;2023-02-11T08:21:48;101184.06;;;2.10;97.86
38900;BME280;24660;43.238;26.576;2023-02-11T08:24:13;101182.09;;;2.21;96.08
38900;BME280;24660;43.238;26.576;2023-02-11T08:26:38;101175.44;;;1.51;96.75
38900;BME280;24660;43.238;26.576;2023-02-11T08:29:07;101166.47;;;2.12;95.00
38900;BME280;24660;43.238;26.576;2023-02-11T08:31:34;101168.63;;;2.36;89.26
38900;BME280;24660;43.238;26.576;2023-02-11T08:33:59;101168.63;;;2.36;88.21
38900;BME280;24660;43.238;26.576;2023-02-11T08:36:27;101175.88;;;2.70;87.33
38900;BME280;24660;43.238;26.576;2023-02-11T08:38:54;101174.16;;;2.67;83.33
38900;BME280;24660;43.238;26.576;2023-02-11T08:41:20;101171.81;;;2.52;85.22
38900;BME280;24660;43.238;26.576;2023-02-11T08:43:45;101166.19;;;2.71;85.19
38900;BME280;24660;43.238;26.576;2023-02-11T08:46:12;101161.63;;;2.77;86.86
38900;BME280;24660;43.238;26.576;2023-02-11T08:48:38;101160.13;;;2.21;89.69
38900;BME280;24660;43.238;26.576;2023-02-11T08:51:07;101160.97;;;0.58;100.00
38900;BME280;24660;43.238;26.576;2023-02-11T08:53:33;101166.81;;;0.80;100.00
38900;BME280;24660;43.238;26.576;2023-02-11T08:55:58;101159.19;;;0.60;100.00
38900;BME280;24660;43.238;26.576;2023-02-11T08:58:24;101157.97;;;0.16;100.00
38900;BME280;24660;43.238;26.576;2023-02-11T09:00:49;101158.38;;;0.55;100.00
38900;BME280;24660;43.238;26.576;2023-02-11T09:03:14;101153.22;;;1.10;100.00
38900;BME280;24660;43.238;26.576;2023-02-11T09:05:42;101153.72;;;1.35;100.00
38900;BME280;24660;43.238;26.576;2023-02-11T09:08:07;101144.34;;;1.17;100.00
38900;BME280;24660;43.238;26.576;2023-02-11T09:10:33;101149.28;;;1.90;100.00
38900;BME280;24660;43.238;26.576;2023-02-11T09:12:58;101145.03;;;2.29;99.43
38900;BME280;24660;43.238;26.576;2023-02-11T09:15:23;101136.13;;;1.88;96.70
38900;BME280;24660;43.238;26.576;2023-02-11T09:17:49;101129.34;;;2.21;99.69
38900;BME280;24660;43.238;26.576;2023-02-11T09:20:14;101124.59;;;2.38;92.59
38900;BME280;24660;43.238;26.576;2023-02-11T09:22:39;101137.38;;;2.15;94.73
38900;BME280;24660;43.238;26.576;2023-02-11T09:25:05;101122.16;;;1.32;97.61
38900;BME280;24660;43.238;26.576;2023-02-11T09:27:31;101120.16;;;1.96;100.00
38900;BME280;24660;43.238;26.576;2023-02-11T09:29:56;101121.91;;;1.47;99.43
38900;BME280;24660;43.238;26.576;2023-02-11T09:32:21;101119.56;;;1.80;98.58
38900;BME280;24660;43.238;26.576;2023-02-11T09:34:46;101124.03;;;2.23;98.53
38900;BME280;24660;43.238;26.576;2023-02-11T09:37:12;101116.31;;;2.14;92.31
38900;BME280;24660;43.238;26.576;2023-02-11T09:39:37;101112.41;;;1.88;95.70
38900;BME280;24660;43.238;26.576;2023-02-11T09:42:06;101108.75;;;1.95;100.00
38900;BME280;24660;43.238;26.576;2023-02-11T09:44:34;101107.25;;;2.68;93.65
38900;BME280;24660;43.238;26.576;2023-02-11T09:47:03;101089.00;;;1.21;97.69
38900;BME280;24660;43.238;26.576;2023-02-11T09:49:32;101092.81;;;1.54;100.00
38900;BME280;24660;43.238;26.576;2023-02-11T09:52:02;101082.78;;;1.74;100.00
38900;BME280;24660;43.238;26.576;2023-02-11T09:54:33;101074.06;;;1.72;95.99
38900;BME280;24660;43.238;26.576;2023-02-11T09:57:00;101073.63;;;2.36;94.94
38900;BME280;24660;43.238;26.576;2023-02-11T09:59:25;101069.91;;;1.59;95.75
38900;BME280;24660;43.238;26.576;2023-02-11T10:01:56;101065.03;;;1.82;93.89
38900;BME280;24660;43.238;26.576;2023-02-11T10:06:49;101049.38;;;2.19;97.95
38900;BME280;24660;43.238;26.576;2023-02-11T10:12:02;101039.44;;;2.32;94.26
38900;BME280;24660;43.238;26.576;2023-02-11T10:14:47;101030.25;;;2.08;87.58
38900;BME280;24660;43.238;26.576;2023-02-11T10:17:29;101034.16;;;2.32;91.59
38900;BME280;24660;43.238;26.576;2023-02-11T10:22:41;101031.22;;;2.04;91.98
38900;BME280;24660;43.238;26.576;2023-02-11T10:25:16;101037.38;;;2.04;91.52
38900;BME280;24660;43.238;26.576;2023-02-11T10:27:42;101031.53;;;2.30;90.32
38900;BME280;24660;43.238;26.576;2023-02-11T10:30:15;101022.53;;;2.39;87.52
38900;BME280;24660;43.238;26.576;2023-02-11T10:32:45;101029.56;;;2.42;91.56
38900;BME280;24660;43.238;26.576;2023-02-11T10:35:15;101021.53;;;2.83;89.52
38900;BME280;24660;43.238;26.576;2023-02-11T10:37:41;101014.78;;;3.07;82.48
38900;BME280;24660;43.238;26.576;2023-02-11T10:40:15;101013.19;;;3.34;77.97
38900;BME280;24660;43.238;26.576;2023-02-11T10:42:41;101001.34;;;2.03;82.48
38900;BME280;24660;43.238;26.576;2023-02-11T10:45:09;101003.50;;;2.26;91.21
38900;BME280;24660;43.238;26.576;2023-02-11T10:47:41;101006.78;;;2.75;87.38
38900;BME280;24660;43.238;26.576;2023-02-11T10:50:19;101006.69;;;2.78;81.81
38900;BME280;24660;43.238;26.576;2023-02-11T10:52:44;100997.88;;;2.01;87.71
38900;BME280;24660;43.238;26.576;2023-02-11T10:55:16;100996.63;;;2.58;84.79
38900;BME280;24660;43.238;26.576;2023-02-11T10:57:51;100979.53;;;3.08;80.94
38900;BME280;24660;43.238;26.576;2023-02-11T11:02:42;100982.34;;;3.02;86.50
38900;BME280;24660;43.238;26.576;2023-02-11T11:05:17;100974.41;;;2.29;85.31
38900;BME280;24660;43.238;26.576;2023-02-11T11:18:37;100955.56;;;2.45;78.60
38900;BME280;24660;43.238;26.576;2023-02-11T11:21:05;100949.94;;;2.60;79.95
38900;BME280;24660;43.238;26.576;2023-02-11T11:23:32;100945.88;;;2.82;79.67
38900;BME280;24660;43.238;26.576;2023-02-11T11:28:42;100932.28;;;2.25;80.15
38900;BME280;24660;43.238;26.576;2023-02-11T11:31:17;100929.75;;;2.20;79.15
38900;BME280;24660;43.238;26.576;2023-02-11T11:33:43;100934.31;;;2.14;80.17
38900;BME280;24660;43.238;26.576;2023-02-11T11:36:11;100932.47;;;2.90;76.06
38900;BME280;24660;43.238;26.576;2023-02-11T11:38:42;100919.56;;;2.78;76.82
38900;BME280;24660;43.238;26.576;2023-02-11T11:41:17;100917.31;;;2.62;78.38
38900;BME280;24660;43.238;26.576;2023-02-11T11:46:25;100910.59;;;2.85;75.83
38900;BME280;24660;43.238;26.576;2023-02-11T11:48:51;100905.56;;;2.74;74.13
38900;BME280;24660;43.238;26.576;2023-02-11T11:51:19;100906.19;;;2.50;74.82
38900;BME280;24660;43.238;26.576;2023-02-11T11:53:50;100893.47;;;2.30;77.72
38900;BME280;24660;43.238;26.576;2023-02-11T11:56:21;100897.09;;;2.61;77.94
38900;BME280;24660;43.238;26.576;2023-02-11T11:58:47;100897.75;;;3.04;72.86
38900;BME280;24660;43.238;26.576;2023-02-11T12:08:37;100883.41;;;2.80;71.75
38900;BME280;24660;43.238;26.576;2023-02-11T12:13:42;100875.97;;;2.95;72.36
38900;BME280;24660;43.238;26.576;2023-02-11T12:18:41;100871.13;;;2.79;76.50
38900;BME280;24660;43.238;26.576;2023-02-11T12:23:46;100866.94;;;3.35;74.64
38900;BME280;24660;43.238;26.576;2023-02-11T12:26:18;100863.75;;;3.24;71.67
38900;BME280;24660;43.238;26.576;2023-02-11T12:31:30;100859.44;;;3.20;71.15
38900;BME280;24660;43.238;26.576;2023-02-11T12:33:59;100863.75;;;3.24;74.91
38900;BME280;24660;43.238;26.576;2023-02-11T12:36:36;100865.78;;;3.45;72.91
38900;BME280;24660;43.238;26.576;2023-02-11T12:41:40;100845.91;;;3.62;66.83
38900;BME280;24660;43.238;26.576;2023-02-11T12:57:26;100843.47;;;3.24;68.75
38900;BME280;24660;43.238;26.576;2023-02-11T12:59:59;100830.19;;;3.27;68.72
38900;BME280;24660;43.238;26.576;2023-02-11T13:02:47;100821.09;;;3.05;68.73
38900;BME280;24660;43.238;26.576;2023-02-11T13:07:39;100819.38;;;3.04;68.53
38900;BME280;24660;43.238;26.576;2023-02-11T13:10:15;100826.19;;;3.13;69.40
38900;BME280;24660;43.238;26.576;2023-02-11T13:12:47;100820.63;;;3.51;67.85
38900;BME280;24660;43.238;26.576;2023-02-11T13:15:29;100807.75;;;3.70;64.97
38900;BME280;24660;43.238;26.576;2023-02-11T13:17:57;100804.88;;;2.55;67.90
38900;BME280;24660;43.238;26.576;2023-02-11T13:20:28;100799.81;;;3.11;65.97
38900;BME280;24660;43.238;26.576;2023-02-11T13:22:58;100802.63;;;3.05;68.33
38900;BME280;24660;43.238;26.576;2023-02-11T13:25:34;100796.78;;;3.25;65.69
38900;BME280;24660;43.238;26.576;2023-02-11T13:28:15;100804.59;;;2.98;67.05
38900;BME280;24660;43.238;26.576;2023-02-11T13:30:43;100798.03;;;3.12;68.63
38900;BME280;24660;43.238;26.576;2023-02-11T13:33:17;100808.13;;;2.97;69.94
38900;BME280;24660;43.238;26.576;2023-02-11T13:38:24;100803.78;;;2.96;73.62
38900;BME280;24660;43.238;26.576;2023-02-11T13:41:00;100801.16;;;3.26;72.19
38900;BME280;24660;43.238;26.576;2023-02-11T13:43:27;100796.56;;;3.02;73.25
38900;BME280;24660;43.238;26.576;2023-02-11T13:45:57;100794.25;;;2.89;74.05
38900;BME280;24660;43.238;26.576;2023-02-11T13:50:50;100791.66;;;2.88;73.14
38900;BME280;24660;43.238;26.576;2023-02-11T13:53:15;100794.06;;;2.95;73.81
38900;BME280;24660;43.238;26.576;2023-02-11T13:55:43;100784.81;;;2.82;73.54
38900;BME280;24660;43.238;26.576;2023-02-11T14:09:07;100760.50;;;3.01;72.73
38900;BME280;24660;43.238;26.576;2023-02-11T14:14:01;100755.50;;;2.59;77.85
38900;BME280;24660;43.238;26.576;2023-02-11T14:16:26;100750.38;;;2.53;81.00
38900;BME280;24660;43.238;26.576;2023-02-11T14:23:43;100734.59;;;2.84;78.42
38900;BME280;24660;43.238;26.576;2023-02-11T14:26:31;100734.63;;;2.82;79.54
38900;BME280;24660;43.238;26.576;2023-02-11T14:28:58;100725.72;;;3.72;75.05
38900;BME280;24660;43.238;26.576;2023-02-11T14:31:27;100718.84;;;3.93;71.73